sensor_id;sensor_type;location;lat;lon;timestamp;P1;durP1;ratioP1;P2;durP2;ratioP2
15500;SDS011;7852;52.228;5.990;2023-07-28T04:05:15;29.5;;;27;;
15500;SDS011;7852;52.228;5.990;2023-07-28T04:05:15;27.9;;;25.8;;
15500;SDS011;7852;52.228;5.990;2023-07-28T04:05:38;28.9;;;27.1;;
15500;SDS011;7852;52.228;5.990;2023-07-28T04:06:39;30;;;27.9;;
15500;SDS011;7852;52.228;5.990;2023-07-28T04:07:38;30.5;;;28.8;;
15500;SDS011;7852;52.228;5.990;2023-07-28T04:08:38;32;;;30;;
15500;SDS011;7852;52.228;5.990;2023-07-28T04:09:38;30.8;;;28.9;;
15500;SDS011;7852;52.228;5.990;2023-07-28T04:10:38;31.3;;;29.4;;
15500;SDS011;7852;52.228;5.990;2023-07-28T04:11:38;31;;;29.3;;
15500;SDS011;7852;52.228;5.990;2023-07-28T04:12:38;31.3;;;29.2;;
15500;SDS011;7852;52.228;5.990;2023-07-28T04:13:38;31.6;;;29.5;;
15500;SDS011;7852;52.228;5.990;2023-07-28T04:14:38;31;;;29.2;;
15500;SDS011;7852;52.228;5.990;2023-07-28T04:15:38;31.7;;;29.6;;
15500;SDS011;7852;52.228;5.990;2023-07-28T04:16:38;30.5;;;28.7;;
15500;SDS011;7852;52.228;5.990;2023-07-28T04:17:38;31.7;;;29.5;;
15500;SDS011;7852;52.228;5.990;2023-07-28T04:18:38;28.9;;;27.1;;
15500;SDS011;7852;52.228;5.990;2023-07-28T04:19:38;29.5;;;27.6;;
15500;SDS011;7852;52.228;5.990;2023-07-28T04:20:38;30.1;;;28;;
15500;SDS011;7852;52.228;5.990;2023-07-28T04:21:38;28.8;;;27.2;;
15500;SDS011;7852;52.228;5.990;2023-07-28T04:22:38;29.8;;;27.4;;
15500;SDS011;7852;52.228;5.990;2023-07-28T04:23:38;28.4;;;26.6;;
15500;SDS011;7852;52.228;5.990;2023-07-28T04:24:38;27.1;;;25.4;;
15500;SDS011;7852;52.228;5.990;2023-07-28T04:25:38;31.2;;;29.2;;
15500;SDS011;7852;52.228;5.990;2023-07-28T04:26:38;29.5;;;27.8;;
15500;SDS011;7852;52.228;5.990;2023-07-28T04:27:38;28.8;;;26.6;;
15500;SDS011;7852;52.228;5.990;2023-07-28T04:28:38;29.3;;;26.7;;
15500;SDS011;7852;52.228;5.990;2023-07-28T04:29:38;28.7;;;26.7;;
15500;SDS011;7852;52.228;5.990;2023-07-28T04:30:38;28.5;;;26.3;;
15500;SDS011;7852;52.228;5.990;2023-07-28T04:31:38;27.1;;;25.4;;
15500;SDS011;7852;52.228;5.990;2023-07-28T04:32:38;28.2;;;26.4;;
15500;SDS011;7852;52.228;5.990;2023-07-28T04:33:38;29.6;;;27.2;;
15500;SDS011;7852;52.228;5.990;2023-07-28T04:34:38;28.9;;;27;;
15500;SDS011;7852;52.228;5.990;2023-07-28T04:35:38;24.8;;;23.1;;
15500;SDS011;7852;52.228;5.990;2023-07-28T04:36:38;28.5;;;26.5;;
15500;SDS011;7852;52.228;5.990;2023-07-28T04:37:38;27.9;;;25.8;;
15500;SDS011;7852;52.228;5.990;2023-07-28T04:38:38;29.9;;;27.5;;
15500;SDS011;7852;52.228;5.990;2023-07-28T04:39:38;26.2;;;24.5;;
15500;SDS011;7852;52.228;5.990;2023-07-28T04:40:38;25.2;;;23.7;;
15500;SDS011;7852;52.228;5.990;2023-07-28T04:41:38;26.7;;;25;;
15500;SDS011;7852;52.228;5.990;2023-07-28T04:42:38;26.9;;;25.3;;
15500;SDS011;7852;52.228;5.990;2023-07-28T04:43:38;28.5;;;26.6;;
15500;SDS011;7852;52.228;5.990;2023-07-28T04:44:38;27.9;;;25.8;;
15500;SDS011;7852;52.228;5.990;2023-07-28T04:45:38;26.3;;;24.4;;
15500;SDS011;7852;52.228;5.990;2023-07-28T04:46:38;27.4;;;25.4;;
15500;SDS011;7852;52.228;5.990;2023-07-28T04:47:38;26;;;24;;
15500;SDS011;7852;52.228;5.990;2023-07-28T04:48:38;27.1;;;25.3;;
15500;SDS011;7852;52.228;5.990;2023-07-28T04:49:38;26.2;;;24.4;;
15500;SDS011;7852;52.228;5.990;2023-07-28T04:50:38;24.6;;;22.5;;
15500;SDS011;7852;52.228;5.990;2023-07-28T04:51:38;26.9;;;24.8;;
15500;SDS011;7852;52.228;5.990;2023-07-28T04:52:38;24.8;;;22.5;;
15500;SDS011;7852;52.228;5.990;2023-07-28T04:53:38;26.2;;;23.8;;
15500;SDS011;7852;52.228;5.990;2023-07-28T04:54:38;22.4;;;20.4;;
15500;SDS011;7852;52.228;5.990;2023-07-28T04:55:38;26.4;;;24.3;;
15500;SDS011;7852;52.228;5.990;2023-07-28T04:56:38;28.7;;;26.2;;
15500;SDS011;7852;52.228;5.990;2023-07-28T04:57:38;29.8;;;27.7;;
15500;SDS011;7852;52.228;5.990;2023-07-28T04:58:38;27.5;;;25.4;;
15500;SDS011;7852;52.228;5.990;2023-07-28T04:59:38;28.9;;;26.3;;
15500;SDS011;7852;52.228;5.990;2023-07-28T05:00:38;26.8;;;24.8;;
15500;SDS011;7852;52.228;5.990;2023-07-28T05:01:38;28.7;;;26.4;;
15500;SDS011;7852;52.228;5.990;2023-07-28T05:02:38;27.2;;;25.4;;
15500;SDS011;7852;52.228;5.990;2023-07-28T05:03:38;30.3;;;28.3;;
15500;SDS011;7852;52.228;5.990;2023-07-28T05:04:38;30;;;27.2;;
15500;SDS011;7852;52.228;5.990;2023-07-28T05:05:38;27.7;;;25.9;;
15500;SDS011;7852;52.228;5.990;2023-07-28T05:06:38;27.1;;;25.3;;
15500;SDS011;7852;52.228;5.990;2023-07-28T05:07:38;28.5;;;26.7;;
15500;SDS011;7852;52.228;5.990;2023-07-28T05:08:38;27.1;;;25;;
15500;SDS011;7852;52.228;5.990;2023-07-28T05:09:38;24.5;;;22.7;;
15500;SDS011;7852;52.228;5.990;2023-07-28T05:10:38;24.1;;;22.2;;
15500;SDS011;7852;52.228;5.990;2023-07-28T05:11:38;25.3;;;23.2;;
15500;SDS011;7852;52.228;5.990;2023-07-28T05:12:38;24.4;;;22.3;;
15500;SDS011;7852;52.228;5.990;2023-07-28T05:13:38;24.3;;;22.6;;
15500;SDS011;7852;52.228;5.990;2023-07-28T05:14:38;25.9;;;23.9;;
15500;SDS011;7852;52.228;5.990;2023-07-28T05:15:38;23.9;;;22.3;;
15500;SDS011;7852;52.228;5.990;2023-07-28T05:16:38;24.4;;;22.7;;
15500;SDS011;7852;52.228;5.990;2023-07-28T05:17:38;22.9;;;21.3;;
15500;SDS011;7852;52.228;5.990;2023-07-28T05:18:38;21.3;;;19.6;;
15500;SDS011;7852;52.228;5.990;2023-07-28T05:19:38;23.5;;;21.2;;
15500;SDS011;7852;52.228;5.990;2023-07-28T05:20:38;25.4;;;23.2;;
15500;SDS011;7852;52.228;5.990;2023-07-28T05:21:38;21.1;;;19.4;;
15500;SDS011;7852;52.228;5.990;2023-07-28T05:22:38;22.5;;;20.5;;
15500;SDS011;7852;52.228;5.990;2023-07-28T05:23:38;21.7;;;19.6;;
15500;SDS011;7852;52.228;5.990;2023-07-28T05:24:38;25.4;;;23.5;;
15500;SDS011;7852;52.228;5.990;2023-07-28T05:25:38;22.5;;;20.8;;
15500;SDS011;7852;52.228;5.990;2023-07-28T05:26:38;18.7;;;17.1;;
15500;SDS011;7852;52.228;5.990;2023-07-28T05:27:38;23.1;;;21.2;;
15500;SDS011;7852;52.228;5.990;2023-07-28T05:28:38;20.6;;;19.1;;
15500;SDS011;7852;52.228;5.990;2023-07-28T05:29:38;23.1;;;21.3;;
15500;SDS011;7852;52.228;5.990;2023-07-28T05:30:38;25.4;;;23.3;;
15500;SDS011;7852;52.228;5.990;2023-07-28T05:31:38;23.2;;;21.3;;
15500;SDS011;7852;52.228;5.990;2023-07-28T05:32:38;19.9;;;18.3;;
15500;SDS011;7852;52.228;5.990;2023-07-28T05:33:38;20;;;18.3;;
15500;SDS011;7852;52.228;5.990;2023-07-28T05:34:38;19.2;;;17.4;;
15500;SDS011;7852;52.228;5.990;2023-07-28T05:35:38;19.2;;;17.6;;
15500;SDS011;7852;52.228;5.990;2023-07-28T05:36:38;21.3;;;19.3;;
15500;SDS011;7852;52.228;5.990;2023-07-28T05:37:38;23.8;;;21.3;;
15500;SDS011;7852;52.228;5.990;2023-07-28T05:38:38;22.4;;;20.8;;
15500;SDS011;7852;52.228;5.990;2023-07-28T05:39:38;21.7;;;19.6;;
15500;SDS011;7852;52.228;5.990;2023-07-28T05:40:38;18.2;;;16.3;;
15500;SDS011;7852;52.228;5.990;2023-07-28T05:41:38;20.6;;;18.2;;
15500;SDS011;7852;52.228;5.990;2023-07-28T05:42:38;18.7;;;17;;
15500;SDS011;7852;52.228;5.990;2023-07-28T05:43:38;16.4;;;14.9;;
15500;SDS011;7852;52.228;5.990;2023-07-28T05:44:38;17.8;;;16.2;;
15500;SDS011;7852;52.228;5.990;2023-07-28T05:45:38;18.6;;;17.4;;
15500;SDS011;7852;52.228;5.990;2023-07-28T05:46:38;18.3;;;16.6;;
15500;SDS011;7852;52.228;5.990;2023-07-28T05:47:38;18;;;16.1;;
15500;SDS011;7852;52.228;5.990;2023-07-28T05:48:38;19.8;;;17.5;;
15500;SDS011;7852;52.228;5.990;2023-07-28T05:49:38;20.9;;;19;;
15500;SDS011;7852;52.228;5.990;2023-07-28T05:50:38;22.1;;;20.5;;
15500;SDS011;7852;52.228;5.990;2023-07-28T05:51:38;21.7;;;19.9;;
15500;SDS011;7852;52.228;5.990;2023-07-28T05:52:38;21.6;;;20.1;;
15500;SDS011;7852;52.228;5.990;2023-07-28T05:53:38;19.9;;;18.1;;
15500;SDS011;7852;52.228;5.990;2023-07-28T05:54:38;18.8;;;17.3;;
15500;SDS011;7852;52.228;5.990;2023-07-28T05:55:38;21.5;;;19.6;;
15500;SDS011;7852;52.228;5.990;2023-07-28T05:56:38;19.1;;;17.6;;
15500;SDS011;7852;52.228;5.990;2023-07-28T05:57:38;19.5;;;17.6;;
15500;SDS011;7852;52.228;5.990;2023-07-28T05:58:38;22.4;;;20.4;;
15500;SDS011;7852;52.228;5.990;2023-07-28T05:59:38;23.7;;;21.4;;
15500;SDS011;7852;52.228;5.990;2023-07-28T06:00:38;20.4;;;18.6;;
15500;SDS011;7852;52.228;5.990;2023-07-28T06:01:38;20.7;;;18.9;;
15500;SDS011;7852;52.228;5.990;2023-07-28T06:02:38;20.6;;;19.1;;
15500;SDS011;7852;52.228;5.990;2023-07-28T06:03:38;23;;;20.7;;
15500;SDS011;7852;52.228;5.990;2023-07-28T06:04:38;23;;;20.7;;
15500;SDS011;7852;52.228;5.990;2023-07-28T06:05:38;23;;;21;;
15500;SDS011;7852;52.228;5.990;2023-07-28T06:06:38;21.3;;;19.8;;
15500;SDS011;7852;52.228;5.990;2023-07-28T06:07:38;22.8;;;21.1;;
15500;SDS011;7852;52.228;5.990;2023-07-28T06:08:38;21.6;;;19.9;;
15500;SDS011;7852;52.228;5.990;2023-07-28T06:09:38;21.3;;;19.5;;
15500;SDS011;7852;52.228;5.990;2023-07-28T06:10:38;20;;;18.2;;
15500;SDS011;7852;52.228;5.990;2023-07-28T06:11:38;21.1;;;19.5;;
15500;SDS011;7852;52.228;5.990;2023-07-28T06:12:38;22.9;;;20.6;;
15500;SDS011;7852;52.228;5.990;2023-07-28T06:13:38;24.3;;;22.3;;
15500;SDS011;7852;52.228;5.990;2023-07-28T06:14:38;25.3;;;23.6;;
15500;SDS011;7852;52.228;5.990;2023-07-28T06:15:38;24.2;;;22.1;;
15500;SDS011;7852;52.228;5.990;2023-07-28T06:16:38;26.1;;;23.7;;
15500;SDS011;7852;52.228;5.990;2023-07-28T06:17:38;24.8;;;23.1;;
15500;SDS011;7852;52.228;5.990;2023-07-28T06:18:38;23.5;;;21.3;;
15500;SDS011;7852;52.228;5.990;2023-07-28T06:19:38;22.1;;;20.8;;
15500;SDS011;7852;52.228;5.990;2023-07-28T06:20:41;24.3;;;22.4;;
15500;SDS011;7852;52.228;5.990;2023-07-28T06:21:38;21.7;;;20.3;;
15500;SDS011;7852;52.228;5.990;2023-07-28T06:22:38;23.2;;;21.7;;
15500;SDS011;7852;52.228;5.990;2023-07-28T06:23:38;25;;;23.1;;
15500;SDS011;7852;52.228;5.990;2023-07-28T06:24:38;20.6;;;19.1;;
15500;SDS011;7852;52.228;5.990;2023-07-28T06:25:38;20.8;;;19.1;;
15500;SDS011;7852;52.228;5.990;2023-07-28T06:26:38;25.6;;;23.7;;
15500;SDS011;7852;52.228;5.990;2023-07-28T06:27:38;24.1;;;22.3;;
15500;SDS011;7852;52.228;5.990;2023-07-28T06:28:38;21.5;;;19.9;;
15500;SDS011;7852;52.228;5.990;2023-07-28T06:29:38;20.2;;;18.7;;
15500;SDS011;7852;52.228;5.990;2023-07-28T06:30:38;21.8;;;19.9;;
15500;SDS011;7852;52.228;5.990;2023-07-28T06:31:38;20.4;;;18.9;;
15500;SDS011;7852;52.228;5.990;2023-07-28T06:32:38;23.2;;;21.7;;
15500;SDS011;7852;52.228;5.990;2023-07-28T06:33:38;22.3;;;20.8;;
15500;SDS011;7852;52.228;5.990;2023-07-28T06:34:38;20.9;;;19;;
15500;SDS011;7852;52.228;5.990;2023-07-28T06:35:38;22.4;;;20.5;;
15500;SDS011;7852;52.228;5.990;2023-07-28T06:36:38;18.9;;;17.6;;
15500;SDS011;7852;52.228;5.990;2023-07-28T06:37:38;20.1;;;18.6;;
15500;SDS011;7852;52.228;5.990;2023-07-28T06:38:38;19.7;;;18.5;;
15500;SDS011;7852;52.228;5.990;2023-07-28T06:39:38;19.3;;;17.5;;
15500;SDS011;7852;52.228;5.990;2023-07-28T06:40:38;17.1;;;16.1;;
15500;SDS011;7852;52.228;5.990;2023-07-28T06:41:38;18.4;;;17;;
15500;SDS011;7852;52.228;5.990;2023-07-28T06:42:38;20.3;;;18.4;;
15500;SDS011;7852;52.228;5.990;2023-07-28T06:43:38;20;;;18.5;;
15500;SDS011;7852;52.228;5.990;2023-07-28T06:44:38;18.7;;;17.4;;
15500;SDS011;7852;52.228;5.990;2023-07-28T06:45:38;18.6;;;17.1;;
15500;SDS011;7852;52.228;5.990;2023-07-28T06:46:38;17.3;;;15.5;;
15500;SDS011;7852;52.228;5.990;2023-07-28T06:47:38;15.3;;;14.2;;
15500;SDS011;7852;52.228;5.990;2023-07-28T06:48:38;17.5;;;15.6;;
15500;SDS011;7852;52.228;5.990;2023-07-28T06:49:38;16.1;;;14.9;;
15500;SDS011;7852;52.228;5.990;2023-07-28T06:50:38;18;;;16.7;;
15500;SDS011;7852;52.228;5.990;2023-07-28T06:51:38;17.6;;;16.5;;
15500;SDS011;7852;52.228;5.990;2023-07-28T06:52:38;17.4;;;15.8;;
15500;SDS011;7852;52.228;5.990;2023-07-28T06:53:38;16.7;;;15.2;;
15500;SDS011;7852;52.228;5.990;2023-07-28T06:54:38;18.8;;;16.4;;
15500;SDS011;7852;52.228;5.990;2023-07-28T07:00:06;18.6;;;16.9;;
15500;SDS011;7852;52.228;5.990;2023-07-28T07:00:06;17.4;;;16.2;;
15500;SDS011;7852;52.228;5.990;2023-07-28T07:00:38;15.2;;;13.9;;
15500;SDS011;7852;52.228;5.990;2023-07-28T07:01:38;16.5;;;14.8;;
15500;SDS011;7852;52.228;5.990;2023-07-28T07:02:38;15.7;;;14.4;;
15500;SDS011;7852;52.228;5.990;2023-07-28T07:03:38;15.7;;;14.3;;
15500;SDS011;7852;52.228;5.990;2023-07-28T07:04:38;18;;;16.3;;
15500;SDS011;7852;52.228;5.990;2023-07-28T07:05:38;16.8;;;15.6;;
15500;SDS011;7852;52.228;5.990;2023-07-28T07:06:38;17.9;;;16.2;;
15500;SDS011;7852;52.228;5.990;2023-07-28T07:07:38;13.7;;;12.7;;
15500;SDS011;7852;52.228;5.990;2023-07-28T07:08:38;16.9;;;15.4;;
15500;SDS011;7852;52.228;5.990;2023-07-28T07:09:38;17.9;;;16.3;;
15500;SDS011;7852;52.228;5.990;2023-07-28T07:10:38;16.8;;;15.5;;
15500;SDS011;7852;52.228;5.990;2023-07-28T07:11:38;17.3;;;15.7;;
15500;SDS011;7852;52.228;5.990;2023-07-28T07:12:38;16.6;;;15.4;;
15500;SDS011;7852;52.228;5.990;2023-07-28T07:13:38;18;;;16.4;;
15500;SDS011;7852;52.228;5.990;2023-07-28T07:14:38;16.6;;;15.4;;
15500;SDS011;7852;52.228;5.990;2023-07-28T07:15:38;14.8;;;13.4;;
15500;SDS011;7852;52.228;5.990;2023-07-28T07:16:38;13.8;;;12.4;;
15500;SDS011;7852;52.228;5.990;2023-07-28T07:17:38;13.1;;;11.9;;
15500;SDS011;7852;52.228;5.990;2023-07-28T07:18:38;13.6;;;11.7;;
15500;SDS011;7852;52.228;5.990;2023-07-28T07:19:38;14.4;;;13;;
15500;SDS011;7852;52.228;5.990;2023-07-28T07:20:38;11.8;;;10.7;;
15500;SDS011;7852;52.228;5.990;2023-07-28T07:21:38;10.5;;;9.8;;
15500;SDS011;7852;52.228;5.990;2023-07-28T07:22:38;13.7;;;12.3;;
15500;SDS011;7852;52.228;5.990;2023-07-28T07:23:38;14.3;;;13.3;;
15500;SDS011;7852;52.228;5.990;2023-07-28T07:24:38;12.8;;;11.6;;
15500;SDS011;7852;52.228;5.990;2023-07-28T07:25:38;11.9;;;11;;
15500;SDS011;7852;52.228;5.990;2023-07-28T07:26:38;11.3;;;10.3;;
15500;SDS011;7852;52.228;5.990;2023-07-28T07:27:38;13.9;;;12.6;;
15500;SDS011;7852;52.228;5.990;2023-07-28T07:28:38;12.3;;;11.2;;
15500;SDS011;7852;52.228;5.990;2023-07-28T07:29:38;11.4;;;10.3;;
15500;SDS011;7852;52.228;5.990;2023-07-28T07:30:38;10.6;;;9.8;;
15500;SDS011;7852;52.228;5.990;2023-07-28T07:31:38;12.2;;;11.1;;
15500;SDS011;7852;52.228;5.990;2023-07-28T07:32:38;11.6;;;10.6;;
15500;SDS011;7852;52.228;5.990;2023-07-28T07:33:38;14.5;;;13.1;;
15500;SDS011;7852;52.228;5.990;2023-07-28T07:34:38;15;;;13.7;;
15500;SDS011;7852;52.228;5.990;2023-07-28T07:35:38;15.3;;;14.2;;
15500;SDS011;7852;52.228;5.990;2023-07-28T07:36:38;22.2;;;21;;
15500;SDS011;7852;52.228;5.990;2023-07-28T07:37:38;25.2;;;23.9;;
15500;SDS011;7852;52.228;5.990;2023-07-28T07:38:38;23.6;;;22.2;;
15500;SDS011;7852;52.228;5.990;2023-07-28T07:39:38;19.8;;;18.6;;
15500;SDS011;7852;52.228;5.990;2023-07-28T07:40:38;13.7;;;12.6;;
15500;SDS011;7852;52.228;5.990;2023-07-28T07:41:38;13.8;;;12.6;;
15500;SDS011;7852;52.228;5.990;2023-07-28T07:42:41;12.4;;;11.4;;
15500;SDS011;7852;52.228;5.990;2023-07-28T07:43:38;16.3;;;15;;
15500;SDS011;7852;52.228;5.990;2023-07-28T07:44:38;17;;;15.8;;
15500;SDS011;7852;52.228;5.990;2023-07-28T07:45:38;14.9;;;13.9;;
15500;SDS011;7852;52.228;5.990;2023-07-28T07:46:38;18.4;;;17;;
15500;SDS011;7852;52.228;5.990;2023-07-28T07:47:38;22.3;;;21.1;;
15500;SDS011;7852;52.228;5.990;2023-07-28T07:48:38;26.9;;;24.8;;
15500;SDS011;7852;52.228;5.990;2023-07-28T07:49:38;19.7;;;18.5;;
15500;SDS011;7852;52.228;5.990;2023-07-28T07:50:38;20.6;;;18.8;;
15500;SDS011;7852;52.228;5.990;2023-07-28T07:51:38;22.5;;;21;;
15500;SDS011;7852;52.228;5.990;2023-07-28T07:52:38;24.2;;;22.7;;
15500;SDS011;7852;52.228;5.990;2023-07-28T07:53:38;19.1;;;17.8;;
15500;SDS011;7852;52.228;5.990;2023-07-28T07:54:38;21.9;;;20;;
15500;SDS011;7852;52.228;5.990;2023-07-28T07:55:38;21;;;19.5;;
15500;SDS011;7852;52.228;5.990;2023-07-28T07:56:38;15.8;;;14.4;;
15500;SDS011;7852;52.228;5.990;2023-07-28T08:01:06;18.6;;;17.1;;
15500;SDS011;7852;52.228;5.990;2023-07-28T08:01:06;23.6;;;21.9;;
15500;SDS011;7852;52.228;5.990;2023-07-28T08:01:38;27.8;;;26.2;;
15500;SDS011;7852;52.228;5.990;2023-07-28T08:02:38;25.8;;;24;;
15500;SDS011;7852;52.228;5.990;2023-07-28T08:03:38;25.8;;;24.2;;
15500;SDS011;7852;52.228;5.990;2023-07-28T08:04:38;23.4;;;21.9;;
15500;SDS011;7852;52.228;5.990;2023-07-28T08:05:38;24.2;;;22.5;;
15500;SDS011;7852;52.228;5.990;2023-07-28T08:06:38;19.8;;;18.6;;
15500;SDS011;7852;52.228;5.990;2023-07-28T08:07:38;18.7;;;17;;
15500;SDS011;7852;52.228;5.990;2023-07-28T08:08:38;20.3;;;18.5;;
15500;SDS011;7852;52.228;5.990;2023-07-28T08:09:38;22.1;;;16.5;;
15500;SDS011;7852;52.228;5.990;2023-07-28T08:10:38;16.7;;;15.4;;
15500;SDS011;7852;52.228;5.990;2023-07-28T08:11:39;18.7;;;17.2;;
15500;SDS011;7852;52.228;5.990;2023-07-28T08:12:38;17.5;;;16.3;;
15500;SDS011;7852;52.228;5.990;2023-07-28T08:13:38;17.3;;;15.8;;
15500;SDS011;7852;52.228;5.990;2023-07-28T08:14:38;16.7;;;15.4;;
15500;SDS011;7852;52.228;5.990;2023-07-28T08:15:38;17.8;;;16.4;;
15500;SDS011;7852;52.228;5.990;2023-07-28T08:16:38;14.6;;;13.4;;
15500;SDS011;7852;52.228;5.990;2023-07-28T08:17:38;15.6;;;14.5;;
15500;SDS011;7852;52.228;5.990;2023-07-28T08:18:38;15;;;13.8;;
15500;SDS011;7852;52.228;5.990;2023-07-28T08:19:38;16.5;;;15;;
15500;SDS011;7852;52.228;5.990;2023-07-28T08:20:38;15.5;;;14.3;;
15500;SDS011;7852;52.228;5.990;2023-07-28T08:21:38;16.9;;;15.5;;
15500;SDS011;7852;52.228;5.990;2023-07-28T08:22:38;16;;;14.9;;
15500;SDS011;7852;52.228;5.990;2023-07-28T08:23:38;13.8;;;12.6;;
15500;SDS011;7852;52.228;5.990;2023-07-28T08:24:38;15.1;;;12.4;;
15500;SDS011;7852;52.228;5.990;2023-07-28T08:25:38;14.1;;;13;;
15500;SDS011;7852;52.228;5.990;2023-07-28T08:26:38;17.5;;;16.1;;
15500;SDS011;7852;52.228;5.990;2023-07-28T08:27:38;19.1;;;17.9;;
15500;SDS011;7852;52.228;5.990;2023-07-28T08:28:38;23.5;;;21.7;;
15500;SDS011;7852;52.228;5.990;2023-07-28T08:29:38;23.6;;;21.7;;
15500;SDS011;7852;52.228;5.990;2023-07-28T08:30:38;27.6;;;26;;
15500;SDS011;7852;52.228;5.990;2023-07-28T08:31:38;22;;;20.5;;
15500;SDS011;7852;52.228;5.990;2023-07-28T08:32:38;23.8;;;22.2;;
15500;SDS011;7852;52.228;5.990;2023-07-28T08:33:38;23.2;;;21.8;;
15500;SDS011;7852;52.228;5.990;2023-07-28T08:34:38;24;;;22.1;;
15500;SDS011;7852;52.228;5.990;2023-07-28T08:35:38;22.6;;;20.3;;
15500;SDS011;7852;52.228;5.990;2023-07-28T08:36:38;22.4;;;20.6;;
15500;SDS011;7852;52.228;5.990;2023-07-28T08:37:38;20.9;;;19.5;;
15500;SDS011;7852;52.228;5.990;2023-07-28T08:38:38;17;;;15.6;;
15500;SDS011;7852;52.228;5.990;2023-07-28T08:39:38;19.5;;;17.5;;
15500;SDS011;7852;52.228;5.990;2023-07-28T08:40:38;16.7;;;15.4;;
15500;SDS011;7852;52.228;5.990;2023-07-28T08:41:38;20.4;;;18.9;;
15500;SDS011;7852;52.228;5.990;2023-07-28T08:42:39;22.6;;;21;;
15500;SDS011;7852;52.228;5.990;2023-07-28T08:43:38;16.4;;;15.1;;
15500;SDS011;7852;52.228;5.990;2023-07-28T08:44:38;18.6;;;16.9;;
15500;SDS011;7852;52.228;5.990;2023-07-28T08:45:38;21.2;;;19.5;;
15500;SDS011;7852;52.228;5.990;2023-07-28T08:46:38;25.3;;;23.6;;
15500;SDS011;7852;52.228;5.990;2023-07-28T08:47:38;30.9;;;29;;
15500;SDS011;7852;52.228;5.990;2023-07-28T08:48:38;31.3;;;29.2;;
15500;SDS011;7852;52.228;5.990;2023-07-28T08:49:38;29.7;;;27.7;;
15500;SDS011;7852;52.228;5.990;2023-07-28T08:50:38;36.5;;;34.3;;
15500;SDS011;7852;52.228;5.990;2023-07-28T08:51:40;32.3;;;30.4;;
15500;SDS011;7852;52.228;5.990;2023-07-28T08:52:38;25.4;;;23.3;;
15500;SDS011;7852;52.228;5.990;2023-07-28T08:53:38;25.2;;;23.2;;
15500;SDS011;7852;52.228;5.990;2023-07-28T08:54:38;28.2;;;25.6;;
15500;SDS011;7852;52.228;5.990;2023-07-28T08:55:38;34;;;32.1;;
15500;SDS011;7852;52.228;5.990;2023-07-28T08:56:38;38.1;;;35.6;;
15500;SDS011;7852;52.228;5.990;2023-07-28T08:57:38;38.5;;;35.6;;
15500;SDS011;7852;52.228;5.990;2023-07-28T08:58:38;23.3;;;21.6;;
15500;SDS011;7852;52.228;5.990;2023-07-28T08:59:38;27.3;;;25.4;;
15500;SDS011;7852;52.228;5.990;2023-07-28T09:00:38;30.9;;;28.8;;
15500;SDS011;7852;52.228;5.990;2023-07-28T09:01:38;38.2;;;35.6;;
15500;SDS011;7852;52.228;5.990;2023-07-28T09:02:38;38.9;;;36.6;;
15500;SDS011;7852;52.228;5.990;2023-07-28T09:03:39;37;;;34.6;;
15500;SDS011;7852;52.228;5.990;2023-07-28T09:04:38;38.7;;;36.1;;
15500;SDS011;7852;52.228;5.990;2023-07-28T09:05:38;39.5;;;37.2;;
15500;SDS011;7852;52.228;5.990;2023-07-28T09:06:38;20;;;18.3;;
15500;SDS011;7852;52.228;5.990;2023-07-28T09:07:38;30.1;;;27.8;;
15500;SDS011;7852;52.228;5.990;2023-07-28T09:08:38;19.9;;;18.3;;
15500;SDS011;7852;52.228;5.990;2023-07-28T09:09:38;34.1;;;32;;
15500;SDS011;7852;52.228;5.990;2023-07-28T09:10:41;39.6;;;37.2;;
15500;SDS011;7852;52.228;5.990;2023-07-28T09:11:43;35.7;;;33.6;;
15500;SDS011;7852;52.228;5.990;2023-07-28T09:12:44;37.6;;;35.6;;
15500;SDS011;7852;52.228;5.990;2023-07-28T09:13:38;45.9;;;43.4;;
15500;SDS011;7852;52.228;5.990;2023-07-28T09:14:38;28.7;;;27;;
15500;SDS011;7852;52.228;5.990;2023-07-28T09:15:38;46.2;;;43.8;;
15500;SDS011;7852;52.228;5.990;2023-07-28T09:16:38;38.5;;;36.5;;
15500;SDS011;7852;52.228;5.990;2023-07-28T09:17:41;38.1;;;36;;
15500;SDS011;7852;52.228;5.990;2023-07-28T09:18:38;44.9;;;42.7;;
15500;SDS011;7852;52.228;5.990;2023-07-28T09:19:54;44.8;;;42.7;;
15500;SDS011;7852;52.228;5.990;2023-07-28T09:20:39;35.4;;;33.5;;
15500;SDS011;7852;52.228;5.990;2023-07-28T09:21:38;22.5;;;21.1;;
15500;SDS011;7852;52.228;5.990;2023-07-28T09:22:38;38.5;;;36.1;;
15500;SDS011;7852;52.228;5.990;2023-07-28T09:23:38;32.7;;;30.9;;
15500;SDS011;7852;52.228;5.990;2023-07-28T09:24:38;44.6;;;42.4;;
15500;SDS011;7852;52.228;5.990;2023-07-28T09:25:38;17.2;;;16.1;;
15500;SDS011;7852;52.228;5.990;2023-07-28T09:26:38;15.8;;;14.1;;
15500;SDS011;7852;52.228;5.990;2023-07-28T09:27:38;21.4;;;20.1;;
15500;SDS011;7852;52.228;5.990;2023-07-28T09:28:38;18.7;;;17.3;;
15500;SDS011;7852;52.228;5.990;2023-07-28T09:29:38;26.5;;;25.2;;
15500;SDS011;7852;52.228;5.990;2023-07-28T09:30:46;31.3;;;29.7;;
15500;SDS011;7852;52.228;5.990;2023-07-28T09:31:38;36.7;;;34.9;;
15500;SDS011;7852;52.228;5.990;2023-07-28T09:32:38;31.5;;;29.6;;
15500;SDS011;7852;52.228;5.990;2023-07-28T09:33:38;41.2;;;39.2;;
15500;SDS011;7852;52.228;5.990;2023-07-28T09:34:38;21.1;;;19.9;;
15500;SDS011;7852;52.228;5.990;2023-07-28T09:35:46;19.1;;;17.9;;
15500;SDS011;7852;52.228;5.990;2023-07-28T09:36:38;20.3;;;18.9;;
15500;SDS011;7852;52.228;5.990;2023-07-28T09:37:38;10.6;;;8.3;;
15500;SDS011;7852;52.228;5.990;2023-07-28T09:38:38;12.4;;;11.4;;
15500;SDS011;7852;52.228;5.990;2023-07-28T09:39:38;22.4;;;21;;
15500;SDS011;7852;52.228;5.990;2023-07-28T09:40:38;17;;;15.9;;
15500;SDS011;7852;52.228;5.990;2023-07-28T09:41:38;15.5;;;14.2;;
15500;SDS011;7852;52.228;5.990;2023-07-28T09:42:38;9.7;;;8.8;;
15500;SDS011;7852;52.228;5.990;2023-07-28T09:43:38;10.4;;;9.4;;
15500;SDS011;7852;52.228;5.990;2023-07-28T09:44:38;11.5;;;10.5;;
15500;SDS011;7852;52.228;5.990;2023-07-28T09:45:38;13;;;11.9;;
15500;SDS011;7852;52.228;5.990;2023-07-28T09:46:42;18.3;;;17.4;;
15500;SDS011;7852;52.228;5.990;2023-07-28T09:47:38;16.1;;;15.3;;
15500;SDS011;7852;52.228;5.990;2023-07-28T09:48:38;12.3;;;11.5;;
15500;SDS011;7852;52.228;5.990;2023-07-28T09:49:39;16.1;;;15.2;;
15500;SDS011;7852;52.228;5.990;2023-07-28T09:50:40;13;;;11.9;;
15500;SDS011;7852;52.228;5.990;2023-07-28T09:51:38;30.7;;;29.1;;
15500;SDS011;7852;52.228;5.990;2023-07-28T09:52:40;44.4;;;42.6;;
15500;SDS011;7852;52.228;5.990;2023-07-28T09:53:39;54.9;;;52.6;;
15500;SDS011;7852;52.228;5.990;2023-07-28T09:54:39;77;;;74.1;;
15500;SDS011;7852;52.228;5.990;2023-07-28T09:55:38;67.6;;;65.1;;
15500;SDS011;7852;52.228;5.990;2023-07-28T09:56:38;50.3;;;48.3;;
15500;SDS011;7852;52.228;5.990;2023-07-28T09:57:38;77;;;74.1;;
15500;SDS011;7852;52.228;5.990;2023-07-28T09:58:38;74;;;71.3;;
15500;SDS011;7852;52.228;5.990;2023-07-28T09:59:38;69.4;;;66.8;;
15500;SDS011;7852;52.228;5.990;2023-07-28T10:00:38;76.8;;;73.6;;
15500;SDS011;7852;52.228;5.990;2023-07-28T10:01:38;60.7;;;58.2;;
15500;SDS011;7852;52.228;5.990;2023-07-28T10:02:38;60.5;;;58.1;;
15500;SDS011;7852;52.228;5.990;2023-07-28T10:03:38;55.5;;;53.4;;
15500;SDS011;7852;52.228;5.990;2023-07-28T10:04:38;57.1;;;54.7;;
15500;SDS011;7852;52.228;5.990;2023-07-28T10:05:38;53.8;;;51.7;;
15500;SDS011;7852;52.228;5.990;2023-07-28T10:06:38;44.3;;;42.6;;
15500;SDS011;7852;52.228;5.990;2023-07-28T10:07:39;61.9;;;59.6;;
15500;SDS011;7852;52.228;5.990;2023-07-28T10:08:38;47.6;;;45.8;;
15500;SDS011;7852;52.228;5.990;2023-07-28T10:09:38;54.9;;;52.9;;
15500;SDS011;7852;52.228;5.990;2023-07-28T10:10:39;38.6;;;37;;
15500;SDS011;7852;52.228;5.990;2023-07-28T10:11:38;42.4;;;40.9;;
15500;SDS011;7852;52.228;5.990;2023-07-28T10:12:39;45.7;;;44;;
15500;SDS011;7852;52.228;5.990;2023-07-28T10:13:39;21.4;;;20.5;;
15500;SDS011;7852;52.228;5.990;2023-07-28T10:14:38;25.5;;;24.5;;
15500;SDS011;7852;52.228;5.990;2023-07-28T10:15:38;20.2;;;19.4;;
15500;SDS011;7852;52.228;5.990;2023-07-28T10:16:38;17.1;;;16.4;;
15500;SDS011;7852;52.228;5.990;2023-07-28T10:17:38;14.5;;;13.9;;